createdAt,value
2018-12-03T00:01:31.679Z,31.17
2018-12-03T00:04:09.705Z,30.17
2018-12-03T00:06:38.657Z,31.80
2018-12-03T00:09:08.904Z,30.20
2018-12-03T00:11:38.225Z,30.87
2018-12-03T00:14:07.271Z,30.77
2018-12-03T00:16:36.151Z,30.27
2018-12-03T00:19:05.319Z,30.40
2018-12-03T00:21:34.270Z,31.57
2018-12-03T00:24:03.295Z,28.97
2018-12-03T00:26:32.255Z,29.63
2018-12-03T00:29:01.209Z,30.17
2018-12-03T00:31:30.141Z,29.33
2018-12-03T00:33:59.060Z,30.60
2018-12-03T00:36:27.988Z,30.47
2018-12-03T00:38:57.038Z,31.97
2018-12-03T00:41:26.812Z,30.67
2018-12-03T00:43:55.814Z,30.53
2018-12-03T00:46:24.736Z,31.93
2018-12-03T00:48:53.664Z,31.97
2018-12-03T00:51:22.567Z,31.17
2018-12-03T00:53:51.462Z,30.97
2018-12-03T00:56:20.343Z,31.10
2018-12-03T00:58:49.297Z,30.27
2018-12-03T01:01:18.217Z,31.23
2018-12-03T01:03:47.152Z,30.47
2018-12-03T01:06:16.212Z,30.20
2018-12-03T01:08:45.118Z,29.80
2018-12-03T01:11:14.090Z,31.33
2018-12-03T01:13:43.391Z,31.97
2018-12-03T01:16:13.107Z,29.00
2018-12-03T01:18:41.986Z,31.47
2018-12-03T01:21:10.930Z,29.57
2018-12-03T01:23:39.820Z,29.80
2018-12-03T01:26:08.685Z,28.77
2018-12-03T01:28:37.622Z,28.63
2018-12-03T01:31:06.578Z,29.23
2018-12-03T01:33:35.754Z,28.83
2018-12-03T01:36:04.672Z,29.77
2018-12-03T01:38:33.574Z,28.77
2018-12-03T01:41:02.504Z,30.00
2018-12-03T01:43:31.428Z,29.63
2018-12-03T01:46:00.298Z,29.10
2018-12-03T01:48:29.214Z,30.40
2018-12-03T01:50:58.110Z,27.63
2018-12-03T01:53:26.995Z,30.77
2018-12-03T01:55:55.914Z,30.57
2018-12-03T01:58:24.800Z,30.70
2018-12-03T02:00:53.718Z,28.97
2018-12-03T02:03:22.623Z,30.10
2018-12-03T02:05:51.633Z,28.40
2018-12-03T02:08:20.586Z,31.03
2018-12-03T02:10:49.523Z,28.20
2018-12-03T02:13:18.403Z,30.37
2018-12-03T02:15:47.323Z,29.17
2018-12-03T02:18:16.187Z,27.90
2018-12-03T02:20:45.458Z,29.33
2018-12-03T02:23:15.337Z,29.27
2018-12-03T02:25:44.217Z,29.77
2018-12-03T02:28:13.130Z,28.10
2018-12-03T02:30:42.004Z,29.20
2018-12-03T02:33:10.904Z,28.50
2018-12-03T02:35:39.820Z,27.93
2018-12-03T02:38:08.761Z,29.93
2018-12-03T02:40:37.639Z,29.10
2018-12-03T02:43:07.054Z,28.20
2018-12-03T02:45:36.044Z,29.27
2018-12-03T02:48:05.063Z,29.77
2018-12-03T02:50:33.984Z,29.20
2018-12-03T02:53:02.904Z,28.87
2018-12-03T02:55:31.776Z,29.60
2018-12-03T02:58:00.685Z,28.97
2018-12-03T03:00:29.575Z,27.93
2018-12-03T03:02:58.536Z,29.33
2018-12-03T03:05:27.428Z,30.00
2018-12-03T03:07:56.364Z,28.53
2018-12-03T03:10:25.297Z,30.70
2018-12-03T03:12:54.165Z,28.37
2018-12-03T03:15:23.052Z,28.33
2018-12-03T03:17:52.008Z,29.90
2018-12-03T03:20:20.923Z,28.73
2018-12-03T03:22:49.821Z,29.27
2018-12-03T03:25:18.741Z,29.07
2018-12-03T03:27:47.597Z,29.27
2018-12-03T03:30:16.681Z,28.90
2018-12-03T03:32:45.549Z,29.00
2018-12-03T03:35:15.037Z,29.63
2018-12-03T03:37:43.959Z,29.17
2018-12-03T03:40:17.581Z,29.43
2018-12-03T03:42:47.650Z,29.80
2018-12-03T03:45:20.218Z,28.93
2018-12-03T03:47:49.130Z,30.07
2018-12-03T03:50:18.024Z,29.40
2018-12-03T03:52:46.952Z,28.83
2018-12-03T03:55:15.820Z,29.03
2018-12-03T03:57:44.700Z,29.23
2018-12-03T04:00:14.639Z,30.07
2018-12-03T04:02:43.499Z,30.87
2018-12-03T04:05:14.909Z,30.30
2018-12-03T04:07:45.111Z,29.93
2018-12-03T04:10:14.797Z,31.60
2018-12-03T04:12:44.921Z,31.47
2018-12-03T04:15:14.741Z,30.50
2018-12-03T04:17:43.643Z,31.73
2018-12-03T04:20:18.561Z,32.53
2018-12-03T04:22:53.389Z,31.20
2018-12-03T04:25:22.546Z,31.70
2018-12-03T04:27:51.791Z,33.83
2018-12-03T04:30:21.658Z,31.37
2018-12-03T04:32:51.234Z,32.50
2018-12-03T04:35:20.158Z,32.23
2018-12-03T04:37:49.056Z,32.53
2018-12-03T04:40:18.129Z,31.97
2018-12-03T04:42:46.984Z,32.67
2018-12-03T04:45:16.957Z,34.60
2018-12-03T04:47:46.329Z,32.97
2018-12-03T04:50:17.546Z,33.17
2018-12-03T04:52:47.337Z,34.33
2018-12-03T04:55:17.530Z,33.43
2018-12-03T04:57:46.399Z,34.53
2018-12-03T05:00:17.265Z,33.77
2018-12-03T05:02:47.392Z,34.63
2018-12-03T05:05:16.275Z,34.27
2018-12-03T05:07:45.380Z,33.60
2018-12-03T05:10:20.552Z,34.07
2018-12-03T05:12:50.563Z,35.17
2018-12-03T05:15:19.465Z,35.80
2018-12-03T05:17:48.445Z,35.30
2018-12-03T05:20:25.079Z,35.83
2018-12-03T05:22:54.050Z,35.77
2018-12-03T05:25:22.964Z,35.60
2018-12-03T05:27:51.852Z,34.90
2018-12-03T05:30:20.804Z,36.47
2018-12-03T05:32:49.737Z,35.33
2018-12-03T05:35:21.401Z,34.67
2018-12-03T05:37:50.320Z,36.43
2018-12-03T05:40:20.745Z,35.67
2018-12-03T05:42:50.224Z,36.27
2018-12-03T05:45:19.129Z,35.90
2018-12-03T05:47:48.047Z,36.13
2018-12-03T05:50:17.128Z,36.77
2018-12-03T05:52:47.095Z,36.23
2018-12-03T05:55:16.414Z,38.30
2018-12-03T05:57:46.259Z,36.53
2018-12-03T06:00:18.429Z,38.00
2018-12-03T06:02:47.464Z,36.97
2018-12-03T06:05:16.635Z,36.53
2018-12-03T06:07:45.591Z,37.13
2018-12-03T06:10:16.353Z,35.57
2018-12-03T06:12:45.289Z,38.20
2018-12-03T06:15:17.454Z,36.80
2018-12-03T06:17:47.104Z,36.67
2018-12-03T06:20:19.160Z,35.13
2018-12-03T06:22:48.862Z,37.03
2018-12-03T06:25:21.468Z,36.07
2018-12-03T06:27:50.880Z,36.27
2018-12-03T06:30:21.566Z,34.87
2018-12-03T06:32:50.492Z,36.90
2018-12-03T06:35:19.803Z,38.67
2018-12-03T06:37:49.029Z,36.33
2018-12-03T06:40:22.110Z,38.80
2018-12-03T06:42:51.064Z,36.27
2018-12-03T06:45:21.161Z,37.30
2018-12-03T06:47:56.522Z,36.03
2018-12-03T06:50:25.489Z,37.53
2018-12-03T06:52:54.382Z,38.23
2018-12-03T06:55:23.313Z,38.63
2018-12-03T06:57:52.302Z,40.90
2018-12-03T07:00:22.510Z,41.27
2018-12-03T07:02:51.481Z,43.70
2018-12-03T07:05:20.414Z,45.93
2018-12-03T07:07:50.984Z,46.43
2018-12-03T07:10:20.813Z,48.67
2018-12-03T07:12:54.393Z,52.47
2018-12-03T07:15:23.517Z,43.30
2018-12-03T07:17:55.170Z,45.13
2018-12-03T07:20:24.097Z,43.00
2018-12-03T07:22:53.054Z,41.10
2018-12-03T07:25:22.135Z,43.57
2018-12-03T07:27:51.093Z,40.30
2018-12-03T07:30:24.888Z,40.80
2018-12-03T07:32:54.096Z,42.73
2018-12-03T07:35:23.895Z,41.37
2018-12-03T07:37:54.033Z,41.33
2018-12-03T07:40:22.940Z,39.50
2018-12-03T07:42:51.839Z,38.27
2018-12-03T07:45:21.775Z,37.57
2018-12-03T07:47:50.679Z,38.70
2018-12-03T07:50:20.927Z,45.23
2018-12-03T07:52:49.945Z,41.40
2018-12-03T07:55:20.906Z,39.60
2018-12-03T07:57:54.752Z,40.07
2018-12-03T08:01:02.098Z,37.27
2018-12-03T08:03:31.065Z,37.77
2018-12-03T08:06:00.811Z,36.37
2018-12-03T08:08:31.457Z,38.03
2018-12-03T08:11:01.614Z,36.10
2018-12-03T08:13:30.716Z,35.27
2018-12-03T08:15:59.574Z,34.13
2018-12-03T08:18:28.519Z,35.97
2018-12-03T08:21:00.210Z,34.33
2018-12-03T08:23:41.137Z,32.90
2018-12-03T08:26:10.924Z,32.87
2018-12-03T08:28:39.872Z,33.13
2018-12-03T08:31:08.775Z,32.57
2018-12-03T08:33:37.974Z,34.17
2018-12-03T08:36:08.158Z,38.70
2018-12-03T08:38:37.392Z,33.90
2018-12-03T08:41:07.881Z,32.53
2018-12-03T08:43:36.830Z,34.33
2018-12-03T08:46:08.002Z,31.47
2018-12-03T08:48:38.833Z,31.37
2018-12-03T08:51:08.362Z,32.97
2018-12-03T08:53:37.863Z,31.90
2018-12-03T08:56:07.243Z,30.97
2018-12-03T08:58:36.143Z,31.83
2018-12-03T09:01:09.845Z,32.47
2018-12-03T09:03:38.738Z,33.17
2018-12-03T09:06:10.285Z,32.47
2018-12-03T09:08:39.188Z,31.83
2018-12-03T09:11:10.716Z,32.70
2018-12-03T09:13:39.567Z,31.37
2018-12-03T09:16:08.499Z,31.27
2018-12-03T09:18:39.157Z,35.70
2018-12-03T09:21:13.469Z,30.63
2018-12-03T09:23:43.731Z,32.50
2018-12-03T09:26:13.599Z,39.13
2018-12-03T09:28:42.657Z,43.67
2018-12-03T09:31:21.155Z,47.60
2018-12-03T09:33:54.709Z,36.97
2018-12-03T09:36:24.439Z,33.57
2018-12-03T09:39:16.877Z,40.67
2018-12-03T09:41:47.204Z,37.57
2018-12-03T09:44:16.087Z,31.83
2018-12-03T09:46:44.935Z,33.87
2018-12-03T09:49:13.825Z,31.03
2018-12-03T09:51:42.666Z,31.00
2018-12-03T09:54:12.003Z,30.83
2018-12-03T09:56:43.614Z,39.87
2018-12-03T09:59:17.274Z,29.33
2018-12-03T10:01:47.576Z,28.73
2018-12-03T10:04:21.810Z,31.20
2018-12-03T10:06:50.785Z,29.33
2018-12-03T10:09:19.656Z,32.47
2018-12-03T10:11:48.532Z,56.00
2018-12-03T10:14:19.929Z,31.13
2018-12-03T10:16:48.759Z,45.13
2018-12-03T10:19:17.622Z,49.43
2018-12-03T10:21:47.396Z,28.57
2018-12-03T10:24:16.889Z,32.80
2018-12-03T10:26:46.685Z,30.80
2018-12-03T10:29:17.680Z,26.73
2018-12-03T10:31:46.596Z,28.77
2018-12-03T10:34:18.680Z,26.60
2018-12-03T10:36:51.968Z,27.03
2018-12-03T10:39:25.470Z,27.63
2018-12-03T10:42:28.865Z,30.17
2018-12-03T10:44:57.742Z,29.53
2018-12-03T10:47:26.625Z,28.13
2018-12-03T10:49:55.536Z,27.27
2018-12-03T10:52:25.051Z,27.50
2018-12-03T10:54:54.252Z,26.30
2018-12-03T10:57:24.016Z,28.43
2018-12-03T10:59:55.320Z,28.83
2018-12-03T11:02:37.339Z,30.97
2018-12-03T11:05:13.043Z,30.93
2018-12-03T11:07:42.108Z,26.60
2018-12-03T11:10:11.162Z,28.33
2018-12-03T11:12:40.204Z,25.70
2018-12-03T11:15:14.887Z,31.03
2018-12-03T11:17:43.812Z,30.63
2018-12-03T11:20:12.717Z,26.07
2018-12-03T11:22:41.928Z,25.83
2018-12-03T11:25:14.348Z,27.57
2018-12-03T11:27:45.369Z,27.07
2018-12-03T11:30:14.765Z,29.90
2018-12-03T11:32:43.757Z,29.73
2018-12-03T11:35:13.216Z,28.03
2018-12-03T11:37:44.738Z,27.73
2018-12-03T11:40:25.124Z,27.33
2018-12-03T11:42:55.129Z,28.77
2018-12-03T11:45:23.991Z,28.10
2018-12-03T11:47:52.987Z,27.97
2018-12-03T11:50:21.926Z,26.73
2018-12-03T11:52:50.798Z,27.43
2018-12-03T11:55:19.658Z,26.30
2018-12-03T11:57:48.553Z,26.30
2018-12-03T12:00:17.430Z,29.40
2018-12-03T12:02:46.425Z,30.53
2018-12-03T12:05:15.466Z,27.53
2018-12-03T12:07:44.308Z,27.53
2018-12-03T12:10:13.358Z,29.07
2018-12-03T12:12:42.244Z,27.20
2018-12-03T12:15:12.932Z,28.10
2018-12-03T12:17:41.808Z,27.30
2018-12-03T12:20:11.389Z,30.20
2018-12-03T12:22:40.295Z,28.90
2018-12-03T12:25:12.216Z,27.20
2018-12-03T12:27:43.817Z,27.83
2018-12-03T12:30:14.913Z,26.33
2018-12-03T12:32:43.816Z,28.43
2018-12-03T12:35:12.827Z,29.07
2018-12-03T12:37:41.738Z,26.00
2018-12-03T12:40:12.532Z,28.10
2018-12-03T12:42:42.188Z,28.23
2018-12-03T12:45:15.951Z,26.83
2018-12-03T12:47:44.858Z,28.40
2018-12-03T12:50:16.480Z,29.40
2018-12-03T12:52:45.388Z,28.07
2018-12-03T12:55:14.242Z,28.10
2018-12-03T12:57:43.136Z,28.57
2018-12-03T13:00:18.487Z,28.50
2018-12-03T13:02:49.840Z,29.73
2018-12-03T13:05:18.773Z,31.77
2018-12-03T13:07:47.640Z,35.57
2018-12-03T13:10:17.347Z,32.40
2018-12-03T13:12:49.147Z,30.50
2018-12-03T13:15:18.001Z,28.23
2018-12-03T13:17:47.919Z,30.07
2018-12-03T13:20:18.775Z,30.90
2018-12-03T13:22:47.739Z,29.60
2018-12-03T13:25:18.392Z,31.80
2018-12-03T13:27:48.041Z,31.77
2018-12-03T13:30:17.539Z,35.40
2018-12-03T13:32:47.641Z,33.67
2018-12-03T13:35:16.543Z,34.47
2018-12-03T13:37:45.432Z,33.23
2018-12-03T13:40:17.861Z,34.63
2018-12-03T13:42:47.714Z,33.17
2018-12-03T13:45:19.604Z,32.97
2018-12-03T13:47:48.685Z,33.17
2018-12-03T13:50:17.945Z,30.70
2018-12-03T13:52:46.922Z,33.87
2018-12-03T13:55:18.522Z,34.57
2018-12-03T13:57:47.404Z,33.63
2018-12-03T14:00:21.008Z,35.97
2018-12-03T14:02:55.799Z,32.57
2018-12-03T14:05:25.103Z,32.80
2018-12-03T14:07:59.220Z,32.33
2018-12-03T14:10:39.305Z,35.93
2018-12-03T14:13:17.371Z,47.20
2018-12-03T14:16:01.738Z,50.30
2018-12-03T14:18:35.943Z,48.13
2018-12-03T14:21:11.881Z,42.87
2018-12-03T14:23:40.852Z,34.40
2018-12-03T14:26:09.738Z,34.60
2018-12-03T14:28:38.691Z,36.50
2018-12-03T14:31:07.562Z,35.23
2018-12-03T14:33:36.449Z,36.67
2018-12-03T14:36:05.480Z,39.93
2018-12-03T14:38:34.378Z,39.17
2018-12-03T14:41:03.275Z,38.90
2018-12-03T14:43:32.179Z,38.30
2018-12-03T14:46:01.065Z,38.70
2018-12-03T14:48:29.939Z,40.60
2018-12-03T14:50:58.847Z,39.97
2018-12-03T14:53:27.771Z,40.37
2018-12-03T14:55:56.648Z,40.80
2018-12-03T14:58:25.986Z,41.77
2018-12-03T15:00:55.779Z,46.23
2018-12-03T15:03:24.641Z,50.97
2018-12-03T15:05:53.499Z,50.93
2018-12-03T15:08:22.404Z,48.33
2018-12-03T15:10:51.293Z,44.80
2018-12-03T15:13:20.553Z,45.97
2018-12-03T15:15:49.420Z,47.27
2018-12-03T15:18:18.344Z,48.97
2018-12-03T15:20:50.332Z,49.47
2018-12-03T15:23:19.191Z,46.17
2018-12-03T15:25:48.491Z,44.93
2018-12-03T15:28:17.382Z,48.07
2018-12-03T15:30:46.266Z,46.80
2018-12-03T15:33:15.117Z,48.13
2018-12-03T15:35:44.029Z,48.47
2018-12-03T15:38:12.945Z,47.90
2018-12-03T15:40:41.802Z,49.57
2018-12-03T15:43:10.722Z,48.43
2018-12-03T15:45:39.580Z,48.13
2018-12-03T15:48:08.447Z,47.73
2018-12-03T15:50:37.392Z,47.50
2018-12-03T15:53:06.243Z,49.10
2018-12-03T15:55:35.128Z,47.30
2018-12-03T15:58:04.046Z,50.00
2018-12-03T16:00:32.965Z,47.70
2018-12-03T16:03:01.861Z,51.77
2018-12-03T16:05:30.731Z,49.10
2018-12-03T16:07:59.599Z,50.27
2018-12-03T16:10:28.754Z,51.23
2018-12-03T16:12:57.653Z,50.17
2018-12-03T16:15:26.896Z,50.17
2018-12-03T16:17:56.513Z,52.27
2018-12-03T16:20:25.408Z,53.73
2018-12-03T16:22:54.869Z,52.47
2018-12-03T16:25:23.799Z,52.53
2018-12-03T16:27:52.672Z,51.37
2018-12-03T16:30:23.099Z,52.90
2018-12-03T16:32:52.102Z,52.00
2018-12-03T16:35:21.112Z,54.00
2018-12-03T16:37:50.105Z,53.67
2018-12-03T16:40:19.496Z,52.87
2018-12-03T16:42:48.419Z,54.60
2018-12-03T16:45:17.350Z,54.10
2018-12-03T16:47:46.263Z,54.53
2018-12-03T16:50:15.133Z,53.47
2018-12-03T16:52:44.504Z,53.90
2018-12-03T16:55:13.767Z,51.83
2018-12-03T16:57:42.636Z,51.83
2018-12-03T17:00:13.691Z,55.33
2018-12-03T17:02:42.667Z,53.73
2018-12-03T17:05:11.675Z,53.57
2018-12-03T17:07:40.677Z,50.77
2018-12-03T17:10:12.348Z,51.00
2018-12-03T17:12:41.320Z,51.23
2018-12-03T17:15:11.283Z,49.87
2018-12-03T17:17:40.218Z,49.07
2018-12-03T17:20:16.258Z,47.67
2018-12-03T17:22:50.675Z,49.20
2018-12-03T17:25:22.742Z,49.87
2018-12-03T17:27:51.733Z,49.63
2018-12-03T17:30:20.657Z,48.90
2018-12-03T17:32:49.527Z,49.37
2018-12-03T17:35:19.143Z,47.53
2018-12-03T17:37:48.095Z,49.47
2018-12-03T17:40:17.020Z,49.87
2018-12-03T17:42:45.943Z,48.27
2018-12-03T17:45:14.891Z,48.77
2018-12-03T17:47:43.786Z,48.37
2018-12-03T17:50:12.827Z,46.83
2018-12-03T17:52:41.771Z,49.03
2018-12-03T17:55:10.771Z,49.00
2018-12-03T17:57:40.044Z,48.67
2018-12-03T18:00:13.302Z,48.77
2018-12-03T18:02:42.301Z,47.50
2018-12-03T18:05:11.267Z,51.13
2018-12-03T18:07:40.151Z,47.97
2018-12-03T18:10:11.016Z,49.40
2018-12-03T18:12:40.318Z,47.37
2018-12-03T18:15:10.223Z,48.27
2018-12-03T18:17:39.362Z,46.23
2018-12-03T18:20:09.916Z,44.37
2018-12-03T18:22:39.752Z,46.37
2018-12-03T18:25:09.305Z,46.03
2018-12-03T18:27:38.229Z,47.23
2018-12-03T18:30:08.924Z,44.43
2018-12-03T18:32:37.930Z,47.20
2018-12-03T18:35:07.539Z,45.60
2018-12-03T18:37:36.767Z,46.00
2018-12-03T18:40:07.035Z,47.93
2018-12-03T18:42:36.161Z,46.53
2018-12-03T18:45:06.308Z,48.27
2018-12-03T18:47:35.644Z,49.37
2018-12-03T18:50:15.636Z,49.60
2018-12-03T18:52:44.578Z,50.07
2018-12-03T18:55:13.488Z,48.83
2018-12-03T18:57:43.752Z,50.53
2018-12-03T19:00:14.614Z,49.07
2018-12-03T19:02:43.544Z,48.23
2018-12-03T19:05:12.551Z,47.93
2018-12-03T19:07:41.481Z,45.80
2018-12-03T19:10:10.406Z,47.77
2018-12-03T19:12:39.290Z,48.23
2018-12-03T19:15:08.187Z,48.17
2018-12-03T19:17:37.637Z,47.63
2018-12-03T19:20:08.568Z,50.73
2018-12-03T19:22:37.799Z,48.37
2018-12-03T19:25:07.787Z,50.47
2018-12-03T19:27:36.881Z,50.83
2018-12-03T19:30:09.040Z,50.83
2018-12-03T19:32:37.920Z,51.27
2018-12-03T19:35:07.031Z,50.77
2018-12-03T19:37:35.988Z,50.10
2018-12-03T19:40:05.870Z,51.90
2018-12-03T19:42:34.898Z,49.87
2018-12-03T19:45:04.125Z,51.30
2018-12-03T19:47:33.027Z,49.20
2018-12-03T19:50:02.080Z,50.87
2018-12-03T19:52:31.020Z,50.40
2018-12-03T19:55:00.411Z,49.40
2018-12-03T19:57:33.479Z,49.97
2018-12-03T20:00:02.458Z,47.77
2018-12-03T20:02:31.352Z,48.13
2018-12-03T20:05:04.469Z,48.90
2018-12-03T20:07:33.432Z,45.97
2018-12-03T20:10:02.344Z,46.30
2018-12-03T20:12:32.120Z,45.53
2018-12-03T20:15:01.068Z,45.97
2018-12-03T20:17:34.797Z,46.33
2018-12-03T20:20:04.664Z,45.67
2018-12-03T20:22:42.422Z,47.87
2018-12-03T20:25:14.055Z,49.27
2018-12-03T20:27:54.211Z,44.03
2018-12-03T20:30:47.538Z,44.20
2018-12-03T20:33:19.934Z,45.40
2018-12-03T20:38:33.128Z,44.57
2018-12-03T20:41:08.455Z,44.03
2018-12-03T20:43:38.677Z,45.13
2018-12-03T20:46:33.015Z,44.40
2018-12-03T20:49:14.085Z,41.23
2018-12-03T20:51:43.481Z,41.90
2018-12-03T20:54:12.435Z,42.83
2018-12-03T20:56:41.384Z,41.67
2018-12-03T20:59:10.232Z,40.97
2018-12-03T21:01:42.878Z,40.77
2018-12-03T21:04:11.836Z,41.80
2018-12-03T21:06:40.764Z,42.97
2018-12-03T21:09:09.622Z,42.70
2018-12-03T21:11:39.184Z,40.50
2018-12-03T21:14:08.098Z,40.50
2018-12-03T21:16:36.958Z,41.03
2018-12-03T21:19:05.848Z,38.13
2018-12-03T21:21:34.761Z,37.70
2018-12-03T21:24:03.915Z,41.60
2018-12-03T21:26:32.988Z,39.07
2018-12-03T21:29:01.853Z,39.07
2018-12-03T21:31:30.879Z,38.83
2018-12-03T21:34:00.600Z,39.07
2018-12-03T21:36:29.491Z,36.80
2018-12-03T21:38:58.360Z,36.40
2018-12-03T21:41:27.293Z,36.13
2018-12-03T21:43:56.119Z,35.47
2018-12-03T21:46:25.007Z,35.00
2018-12-03T21:48:54.153Z,36.07
2018-12-03T21:51:23.029Z,36.37
2018-12-03T21:53:51.937Z,36.93
2018-12-03T21:56:20.971Z,34.23
2018-12-03T21:58:49.859Z,36.53
2018-12-03T22:01:18.748Z,36.13
2018-12-03T22:03:47.686Z,37.73
2018-12-03T22:06:16.574Z,39.50
2018-12-03T22:08:45.780Z,37.87
2018-12-03T22:11:14.729Z,40.17
2018-12-03T22:13:43.589Z,39.07
2018-12-03T22:16:12.574Z,40.10
2018-12-03T22:18:43.400Z,39.63
2018-12-03T22:21:12.331Z,39.23
2018-12-03T22:23:41.233Z,39.27
2018-12-03T22:26:10.174Z,38.10
2018-12-03T22:28:39.116Z,38.27
2018-12-03T22:31:07.994Z,37.00
2018-12-03T22:33:36.891Z,36.53
2018-12-03T22:36:05.762Z,37.53
2018-12-03T22:38:34.647Z,37.63
2018-12-03T22:41:03.551Z,41.43
2018-12-03T22:43:32.388Z,40.73
2018-12-03T22:46:01.234Z,39.57
2018-12-03T22:48:30.133Z,38.53
2018-12-03T22:50:58.981Z,38.60
2018-12-03T22:53:27.857Z,38.87
2018-12-03T22:55:56.822Z,36.33
2018-12-03T22:58:25.706Z,38.17
2018-12-03T23:01:01.763Z,35.93
2018-12-03T23:03:30.620Z,37.33
2018-12-03T23:05:59.547Z,36.20
2018-12-03T23:08:28.451Z,36.70
2018-12-03T23:10:57.310Z,36.83
2018-12-03T23:13:26.203Z,37.07
2018-12-03T23:15:55.112Z,37.67
2018-12-03T23:18:23.979Z,36.73
2018-12-03T23:20:52.858Z,36.97
2018-12-03T23:23:21.800Z,37.57
2018-12-03T23:25:51.101Z,38.80
2018-12-03T23:28:19.973Z,38.37
2018-12-03T23:30:48.908Z,37.27
2018-12-03T23:33:17.747Z,37.90
2018-12-03T23:35:46.676Z,38.77
2018-12-03T23:38:15.613Z,39.67
2018-12-03T23:40:44.519Z,40.83
2018-12-03T23:43:13.453Z,37.23
2018-12-03T23:45:42.390Z,38.37
2018-12-03T23:48:11.415Z,36.67
2018-12-03T23:50:40.420Z,37.10
2018-12-03T23:53:09.303Z,36.37
2018-12-03T23:55:38.371Z,37.00
2018-12-03T23:58:07.309Z,38.07
